F/V Harvestor — WDC8229 — position and weather

sailwx.info

Track history (hours):
 
Tides and Currents Weather Stations Pressure Air Temp Water Temp Dewpoint Dewpoint Depression Visibility Wind Speed Wind Dir Waves Ship Positions

F/V Harvestor

Owner: F/V HARVESTOR INC., EDMONDS, WA. More information available from US FCC via Universal Licensing System and Coast Guard Vessel Documentation Center.

Last reported at 2015-Mar-05 09:12 UTC. Time now 2015-Mar-05 10:26 UTC.
Position N 48°11' W 122°33'.

Length 40 m.

Type: Fishing. MMSI: 367083650.

Date/timePositionNaut miles runAvg speedWind from/ knotsBaromVisibWave heightAir tempDewpointWater temp
2015-Mar-05 09:12N 48°11' W 122°33'6 7.9
2015-Mar-05 08:28N 48°06' W 122°28'8 7.9
2015-Mar-05 07:29N 48°00' W 122°21'7 7.2
2015-Mar-05 06:33N 47°54' W 122°22'8 7.8
2015-Mar-05 05:33N 47°46' W 122°25'0 8.2
2015-Mar-05 05:31N 47°46' W 122°25'8 8.4
2015-Mar-05 04:33N 47°38' W 122°27'0 8.3
2015-Mar-05 04:31N 47°38' W 122°27'8 8.1
2015-Mar-05 03:33N 47°30' W 122°29'2 8.7
2015-Mar-05 03:20N 47°28' W 122°31'7 8.9
2015-Mar-05 02:33N 47°22' W 122°32'9 9.0
2015-Mar-05 01:33N 47°13' W 122°36'8 7.6
2015-Mar-05 00:28N 47°10' W 122°48'8 6.2
2015-Mar-04 23:13N 47°05' W 122°55'1 0.3
2015-Mar-04 21:29N 47°04' W 122°55'0 0.0
2015-Mar-04 20:09N 47°04' W 122°55'0 0.0
2015-Mar-04 19:25N 47°04' W 122°55'0 0.0
2015-Mar-04 18:20N 47°04' W 122°55'0 0.0
2015-Mar-04 17:29N 47°04' W 122°55'0 0.0
2015-Mar-04 16:23N 47°04' W 122°55'0 0.0
2015-Mar-04 15:24N 47°04' W 122°55'0 0.0
2015-Mar-04 12:33N 47°04' W 122°55'0 0.0
2015-Mar-04 10:33N 47°04' W 122°55'0 0.0
2015-Mar-04 09:31N 47°04' W 122°55'0 0.0
2015-Mar-04 08:33N 47°04' W 122°55'0 0.0
2015-Mar-04 07:05N 47°04' W 122°55'5 6.5
2015-Mar-04 06:19N 47°09' W 122°54'5 6.5
2015-Mar-04 05:33N 47°10' W 122°47'8 7.3
2015-Mar-04 04:29N 47°13' W 122°36'5 5.8
2015-Mar-04 03:33N 47°18' W 122°33'1 7.0
2015-Mar-04 03:23N 47°19' W 122°33'6 6.7
2015-Mar-04 02:33N 47°24' W 122°32'1 7.8
2015-Mar-04 02:23N 47°26' W 122°32'6 7.9
2015-Mar-04 01:34N 47°32' W 122°29'1 7.7
2015-Mar-04 01:28N 47°32' W 122°28'7 7.9
2015-Mar-04 00:33N 47°39' W 122°27'0225.9
2015-Mar-04 00:33N 47°39' W 122°26'6 6.4
2015-Mar-03 23:33N 47°46' W 122°25'0 5.9
2015-Mar-03 23:33N 47°46' W 122°25'9 8.8
2015-Mar-03 22:33N 47°54' W 122°22'8 8.3
2015-Mar-03 21:33N 48°02' W 122°23'9 8.7
2015-Mar-03 20:32N 48°09' W 122°32'8 8.0
2015-Mar-03 19:29N 48°17' W 122°31'6 0.7
2015-Mar-03 10:33N 48°23' W 122°34'7 7.5
2015-Mar-03 09:33N 48°16' W 122°32'8 7.3
2015-Mar-03 08:29N 48°08' W 122°31'7 7.2
2015-Mar-03 07:33N 48°03' W 122°24'7 6.9
2015-Mar-03 06:33N 47°57' W 122°21'7 6.9
2015-Mar-03 05:34N 47°50' W 122°24'0 3.4
2015-Mar-03 05:33N 47°50' W 122°24'7 7.3
2015-Mar-03 04:33N 47°43' W 122°26'0 0.0
2015-Mar-03 04:33N 47°43' W 122°26'7 7.2
2015-Mar-03 03:33N 47°36' W 122°27'0 4.0
2015-Mar-03 03:33N 47°36' W 122°27'8 7.8
2015-Mar-03 02:33N 47°29' W 122°30'9 8.5
2015-Mar-03 01:33N 47°20' W 122°32'0 7.8
2015-Mar-03 01:31N 47°20' W 122°33'9 8.8
2015-Mar-03 00:33N 47°12' W 122°37'8 7.5
2015-Mar-02 23:31N 47°11' W 122°49'8 6.6
2015-Mar-02 22:19N 47°04' W 122°55'0 0.0
2015-Mar-02 18:27N 47°04' W 122°55'0 0.0
2015-Mar-02 15:04N 47°04' W 122°55'0 0.0
2015-Mar-02 14:31N 47°04' W 122°55'0 0.0
2015-Mar-02 13:33N 47°04' W 122°55'0 0.0
2015-Mar-02 12:23N 47°04' W 122°55'0 0.0
2015-Mar-02 11:33N 47°04' W 122°55'4 1.1
2015-Mar-02 08:07N 47°08' W 122°55'5 9.1
2015-Mar-02 07:33N 47°11' W 122°49'8 7.6
2015-Mar-02 06:32N 47°12' W 122°38'8 8.3
2015-Mar-02 05:33N 47°20' W 122°33'5 7.4
2015-Mar-02 04:54N 47°24' W 122°32'3 7.7
2015-Mar-02 04:33N 47°27' W 122°31'1 7.1
2015-Mar-02 04:24N 47°28' W 122°31'6 7.7
2015-Mar-02 03:33N 47°34' W 122°27'1 7.6
2015-Mar-02 03:29N 47°34' W 122°27'4 4.6
2015-Mar-02 02:33N 47°38' W 122°23'0 0.0
2015-Mar-02 02:29N 47°38' W 122°23'0 0.0
2015-Mar-02 01:33N 47°38' W 122°23'0 0.0
2015-Mar-02 01:29N 47°38' W 122°23'0 0.0
2015-Mar-02 00:33N 47°38' W 122°23'0 0.0
2015-Mar-01 23:53N 47°38' W 122°23'0 0.0
2015-Mar-01 23:16N 47°38' W 122°23'0 0.0
2015-Mar-01 22:49N 47°38' W 122°23'0 0.0
2015-Mar-01 22:33N 47°38' W 122°23'0 0.0
2015-Mar-01 22:28N 47°38' W 122°23'0 0.0
2015-Mar-01 21:33N 47°38' W 122°23'0 0.0
2015-Mar-01 20:58N 47°38' W 122°23'0 0.0
2015-Mar-01 20:33N 47°38' W 122°23'0 0.0
2015-Mar-01 20:13N 47°38' W 122°23'0 0.0
2015-Mar-01 19:34N 47°38' W 122°23'0 0.0
2015-Mar-01 18:33N 47°38' W 122°23'0 0.0
2015-Mar-01 18:12N 47°38' W 122°23'0 0.0
2015-Mar-01 17:33N 47°38' W 122°23'0 0.0
2015-Mar-01 17:12N 47°38' W 122°23'0 0.0
2015-Mar-01 16:33N 47°38' W 122°23'0 0.0
2015-Mar-01 15:56N 47°38' W 122°23'0 0.0
2015-Mar-01 15:31N 47°38' W 122°23'0 0.0
2015-Mar-01 14:33N 47°38' W 122°23'0 0.0
2015-Mar-01 13:40N 47°38' W 122°23'0 0.1
2015-Mar-01 13:33N 47°38' W 122°23'0 0.0
2015-Mar-01 12:35N 47°38' W 122°23'0 0.0
2015-Mar-01 12:33N 47°38' W 122°23'0 0.0
2015-Mar-01 12:20N 47°38' W 122°23'0 0.0
2015-Mar-01 11:33N 47°38' W 122°23'0 0.0
2015-Mar-01 10:55N 47°38' W 122°23'0 0.0
2015-Mar-01 10:33N 47°38' W 122°23'0 0.1
2015-Mar-01 10:29N 47°38' W 122°23'0 0.0
2015-Mar-01 09:33N 47°38' W 122°23'0 0.0
2015-Mar-01 08:26N 47°38' W 122°23'0 0.0
2015-Mar-01 07:26N 47°38' W 122°23'0 0.0
2015-Mar-01 06:33N 47°38' W 122°23'0 0.0
2015-Mar-01 05:33N 47°38' W 122°23'0 0.0
2015-Mar-01 05:33N 47°38' W 122°23'0 0.0
2015-Mar-01 04:33N 47°38' W 122°23'0 0.0
2015-Mar-01 04:27N 47°38' W 122°23'0 0.0
2015-Mar-01 03:32N 47°38' W 122°23'0 0.0
2015-Mar-01 03:32N 47°38' W 122°23'0 0.0
2015-Mar-01 02:32N 47°38' W 122°23'0 0.0
2015-Mar-01 02:12N 47°38' W 122°23'0 0.0
2015-Mar-01 01:34N 47°38' W 122°23'0 0.0
2015-Mar-01 01:32N 47°38' W 122°23'0 0.0
2015-Mar-01 00:34N 47°38' W 122°23'0 0.0
2015-Mar-01 00:32N 47°38' W 122°23'0 0.0
2015-Feb-28 23:33N 47°38' W 122°23'0 0.0
2015-Feb-28 23:32N 47°38' W 122°23'0 0.0
2015-Feb-28 22:33N 47°38' W 122°23'0 0.0
2015-Feb-28 21:52N 47°38' W 122°23'1 2.5
2015-Feb-28 21:33N 47°38' W 122°24'0 8.3
2015-Feb-28 21:31N 47°38' W 122°24'8 8.3
2015-Feb-28 20:33N 47°46' W 122°25'0 8.5
2015-Feb-28 20:31N 47°46' W 122°25'9 9.4
2015-Feb-28 19:34N 47°55' W 122°21'9 8.7
2015-Feb-28 18:33N 48°03' W 122°24'9 9.1
2015-Feb-28 17:33N 48°10' W 122°32'9 8.7
2015-Feb-28 16:32N 48°19' W 122°30'4 0.7
2015-Feb-28 11:05N 48°22' W 122°34'5 8.5
2015-Feb-28 10:31N 48°18' W 122°30'8 7.3
2015-Feb-28 09:24N 48°10' W 122°32'6 7.4
2015-Feb-28 08:32N 48°05' W 122°27'7 7.2
2015-Feb-28 07:33N 47°60' W 122°20'7 6.9
2015-Feb-28 06:34N 47°53' W 122°22'3 7.3
2015-Feb-28 06:08N 47°50' W 122°24'4 7.1
2015-Feb-28 05:33N 47°46' W 122°25'4 7.6
2015-Feb-28 05:03N 47°42' W 122°26'4 7.3
2015-Feb-28 04:33N 47°39' W 122°27'2 7.5
2015-Feb-28 04:18N 47°37' W 122°27'5 7.3
2015-Feb-28 03:33N 47°31' W 122°29'1 8.1
2015-Feb-28 03:27N 47°31' W 122°29'8 8.6
2015-Feb-28 02:28N 47°23' W 122°32'10 8.9
2015-Feb-28 01:19N 47°13' W 122°36'15 1.1
2015-Feb-27 11:18N 47°04' W 122°55'0 0.0
2015-Feb-27 10:18N 47°04' W 122°55'0 0.0
2015-Feb-27 09:31N 47°04' W 122°55'8 1.2
2015-Feb-27 03:15N 47°11' W 122°50'6 7.4
2015-Feb-27 02:24N 47°11' W 122°40'6 7.6
2015-Feb-27 01:33N 47°16' W 122°34'6 6.0
2015-Feb-27 00:33N 47°22' W 122°32'7 7.4
2015-Feb-26 23:33N 47°29' W 122°30'3 7.5
2015-Feb-26 23:09N 47°32' W 122°29'5 7.8
2015-Feb-26 22:33N 47°36' W 122°26'1 8.0
2015-Feb-26 22:23N 47°37' W 122°25'1 1.6
2015-Feb-26 21:33N 47°38' W 122°23'0 0.0
2015-Feb-26 20:59N 47°38' W 122°23'0 0.0
2015-Feb-26 20:32N 47°38' W 122°23'0 0.0
2015-Feb-26 20:24N 47°38' W 122°23'3 3.8
2015-Feb-26 19:34N 47°40' W 122°27'1 8.1
2015-Feb-26 19:29N 47°41' W 122°26'8 8.3
2015-Feb-26 18:34N 47°48' W 122°24'1 7.9
2015-Feb-26 18:29N 47°49' W 122°24'8 8.7
2015-Feb-26 17:33N 47°56' W 122°21'1 8.7
2015-Feb-26 17:29N 47°57' W 122°20'7 7.9
2015-Feb-26 16:33N 48°04' W 122°25'9 8.1
2015-Feb-26 15:25N 48°11' W 122°33'7 8.1
2015-Feb-26 14:34N 48°18' W 122°30'7 2.0
2015-Feb-26 11:04N 48°24' W 122°35'4 8.1
2015-Feb-26 10:33N 48°20' W 122°32'11 7.3
2015-Feb-26 09:03N 48°09' W 122°32'4 7.7
2015-Feb-26 08:30N 48°06' W 122°28'7 7.9
2015-Feb-26 07:33N 48°00' W 122°21'7 7.5
2015-Feb-26 06:34N 47°53' W 122°22'8 7.9
2015-Feb-26 05:34N 47°45' W 122°26'0 8.2
2015-Feb-26 05:33N 47°45' W 122°26'8 7.8
2015-Feb-26 04:33N 47°38' W 122°27'0 5.4
2015-Feb-26 04:33N 47°38' W 122°27'8 7.5
2015-Feb-26 03:33N 47°30' W 122°29'8 8.1
2015-Feb-26 02:34N 47°22' W 122°32'7 7.3
2015-Feb-26 01:33N 47°15' W 122°34'8 7.6
2015-Feb-26 00:32N 47°11' W 122°43'8 7.7
2015-Feb-25 23:33N 47°09' W 122°54'5 0.4
2015-Feb-25 10:30N 47°04' W 122°55'7 6.5
2015-Feb-25 09:21N 47°11' W 122°50'7 6.9
2015-Feb-25 08:20N 47°11' W 122°40'6 7.2
2015-Feb-25 07:33N 47°15' W 122°34'7 7.4
2015-Feb-25 06:33N 47°23' W 122°32'8 8.1
2015-Feb-25 05:33N 47°31' W 122°29'8 8.5
2015-Feb-25 04:36N 47°39' W 122°28'0 8.9
2015-Feb-25 04:33N 47°39' W 122°28'4 8.7
2015-Feb-25 04:06N 47°43' W 122°27'4 8.3
2015-Feb-25 03:34N 47°47' W 122°25'2 8.6
2015-Feb-25 03:17N 47°49' W 122°24'6 8.6
2015-Feb-25 02:34N 47°55' W 122°21'8 7.8
2015-Feb-25 01:33N 48°03' W 122°24'9 8.3
2015-Feb-25 00:26N 48°10' W 122°32'8 8.4
2015-Feb-24 23:31N 48°18' W 122°30'7 0.9
2015-Feb-24 15:16N 48°25' W 122°34'5 6.7
2015-Feb-24 14:32N 48°20' W 122°32'9 7.4
2015-Feb-24 13:17N 48°11' W 122°33'6 7.5
2015-Feb-24 12:29N 48°06' W 122°28'7 7.7
2015-Feb-24 11:33N 48°00' W 122°21'7 7.1
2015-Feb-24 10:33N 47°53' W 122°22'5 7.0
2015-Feb-24 09:54N 47°49' W 122°25'3 7.9
2015-Feb-24 09:33N 47°46' W 122°25'1 8.4
2015-Feb-24 09:29N 47°46' W 122°26'7 8.0
2015-Feb-24 08:34N 47°38' W 122°27'4 7.7
2015-Feb-24 08:04N 47°35' W 122°28'4 8.3
2015-Feb-24 07:33N 47°30' W 122°29'010.8
2015-Feb-24 07:33N 47°30' W 122°29'9 8.6
2015-Feb-24 06:29N 47°21' W 122°32'8 8.2
2015-Feb-24 05:32N 47°14' W 122°35'9 7.9
2015-Feb-24 04:26N 47°10' W 122°46'6 5.8
2015-Feb-24 03:19N 47°07' W 122°55'3 1.1
2015-Feb-24 00:33N 47°04' W 122°55'0 0.0
2015-Feb-23 23:33N 47°04' W 122°55'0 0.1
2015-Feb-23 22:13N 47°04' W 122°55'0 0.0
2015-Feb-23 10:21N 47°04' W 122°55'  
Track history (hours):
 
Tides and Currents Weather Stations Pressure Air Temp Water Temp Dewpoint Dewpoint Depression Visibility Wind Speed Wind Dir Waves Ship Positions

F/V Harvestor

Owner: F/V HARVESTOR INC., EDMONDS, WA. More information available from US FCC via Universal Licensing System and Coast Guard Vessel Documentation Center.

Last reported at 2015-Mar-05 09:12 UTC. Time now 2015-Mar-05 10:26 UTC.
Position N 48°11' W 122°33'.

Length 40 m.

Type: Fishing. MMSI: 367083650.

Date/timePositionNaut miles runAvg speedWind from/ knotsBaromVisibWave heightAir tempDewpointWater temp
2015-Mar-05 09:12N 48°11' W 122°33'6 7.9
2015-Mar-05 08:28N 48°06' W 122°28'8 7.9
2015-Mar-05 07:29N 48°00' W 122°21'7 7.2
2015-Mar-05 06:33N 47°54' W 122°22'8 7.8
2015-Mar-05 05:33N 47°46' W 122°25'0 8.2
2015-Mar-05 05:31N 47°46' W 122°25'8 8.4
2015-Mar-05 04:33N 47°38' W 122°27'0 8.3
2015-Mar-05 04:31N 47°38' W 122°27'8 8.1
2015-Mar-05 03:33N 47°30' W 122°29'2 8.7
2015-Mar-05 03:20N 47°28' W 122°31'7 8.9
2015-Mar-05 02:33N 47°22' W 122°32'9 9.0
2015-Mar-05 01:33N 47°13' W 122°36'8 7.6
2015-Mar-05 00:28N 47°10' W 122°48'8 6.2
2015-Mar-04 23:13N 47°05' W 122°55'1 0.3
2015-Mar-04 21:29N 47°04' W 122°55'0 0.0
2015-Mar-04 20:09N 47°04' W 122°55'0 0.0
2015-Mar-04 19:25N 47°04' W 122°55'0 0.0
2015-Mar-04 18:20N 47°04' W 122°55'0 0.0
2015-Mar-04 17:29N 47°04' W 122°55'0 0.0
2015-Mar-04 16:23N 47°04' W 122°55'0 0.0
2015-Mar-04 15:24N 47°04' W 122°55'0 0.0
2015-Mar-04 12:33N 47°04' W 122°55'0 0.0
2015-Mar-04 10:33N 47°04' W 122°55'0 0.0
2015-Mar-04 09:31N 47°04' W 122°55'0 0.0
2015-Mar-04 08:33N 47°04' W 122°55'0 0.0
2015-Mar-04 07:05N 47°04' W 122°55'5 6.5
2015-Mar-04 06:19N 47°09' W 122°54'5 6.5
2015-Mar-04 05:33N 47°10' W 122°47'8 7.3
2015-Mar-04 04:29N 47°13' W 122°36'5 5.8
2015-Mar-04 03:33N 47°18' W 122°33'1 7.0
2015-Mar-04 03:23N 47°19' W 122°33'6 6.7
2015-Mar-04 02:33N 47°24' W 122°32'1 7.8
2015-Mar-04 02:23N 47°26' W 122°32'6 7.9
2015-Mar-04 01:34N 47°32' W 122°29'1 7.7
2015-Mar-04 01:28N 47°32' W 122°28'7 7.9
2015-Mar-04 00:33N 47°39' W 122°27'0225.9
2015-Mar-04 00:33N 47°39' W 122°26'6 6.4
2015-Mar-03 23:33N 47°46' W 122°25'0 5.9
2015-Mar-03 23:33N 47°46' W 122°25'9 8.8
2015-Mar-03 22:33N 47°54' W 122°22'8 8.3
2015-Mar-03 21:33N 48°02' W 122°23'9 8.7
2015-Mar-03 20:32N 48°09' W 122°32'8 8.0
2015-Mar-03 19:29N 48°17' W 122°31'6 0.7
2015-Mar-03 10:33N 48°23' W 122°34'7 7.5
2015-Mar-03 09:33N 48°16' W 122°32'8 7.3
2015-Mar-03 08:29N 48°08' W 122°31'7 7.2
2015-Mar-03 07:33N 48°03' W 122°24'7 6.9
2015-Mar-03 06:33N 47°57' W 122°21'7 6.9
2015-Mar-03 05:34N 47°50' W 122°24'0 3.4
2015-Mar-03 05:33N 47°50' W 122°24'7 7.3
2015-Mar-03 04:33N 47°43' W 122°26'0 0.0
2015-Mar-03 04:33N 47°43' W 122°26'7 7.2
2015-Mar-03 03:33N 47°36' W 122°27'0 4.0
2015-Mar-03 03:33N 47°36' W 122°27'8 7.8
2015-Mar-03 02:33N 47°29' W 122°30'9 8.5
2015-Mar-03 01:33N 47°20' W 122°32'0 7.8
2015-Mar-03 01:31N 47°20' W 122°33'9 8.8
2015-Mar-03 00:33N 47°12' W 122°37'8 7.5
2015-Mar-02 23:31N 47°11' W 122°49'8 6.6
2015-Mar-02 22:19N 47°04' W 122°55'0 0.0
2015-Mar-02 18:27N 47°04' W 122°55'0 0.0
2015-Mar-02 15:04N 47°04' W 122°55'0 0.0
2015-Mar-02 14:31N 47°04' W 122°55'0 0.0
2015-Mar-02 13:33N 47°04' W 122°55'0 0.0
2015-Mar-02 12:23N 47°04' W 122°55'0 0.0
2015-Mar-02 11:33N 47°04' W 122°55'4 1.1
2015-Mar-02 08:07N 47°08' W 122°55'5 9.1
2015-Mar-02 07:33N 47°11' W 122°49'8 7.6
2015-Mar-02 06:32N 47°12' W 122°38'8 8.3
2015-Mar-02 05:33N 47°20' W 122°33'5 7.4
2015-Mar-02 04:54N 47°24' W 122°32'3 7.7
2015-Mar-02 04:33N 47°27' W 122°31'1 7.1
2015-Mar-02 04:24N 47°28' W 122°31'6 7.7
2015-Mar-02 03:33N 47°34' W 122°27'1 7.6
2015-Mar-02 03:29N 47°34' W 122°27'4 4.6
2015-Mar-02 02:33N 47°38' W 122°23'0 0.0
2015-Mar-02 02:29N 47°38' W 122°23'0 0.0
2015-Mar-02 01:33N 47°38' W 122°23'0 0.0
2015-Mar-02 01:29N 47°38' W 122°23'0 0.0
2015-Mar-02 00:33N 47°38' W 122°23'0 0.0
2015-Mar-01 23:53N 47°38' W 122°23'0 0.0
2015-Mar-01 23:16N 47°38' W 122°23'0 0.0
2015-Mar-01 22:49N 47°38' W 122°23'0 0.0
2015-Mar-01 22:33N 47°38' W 122°23'0 0.0
2015-Mar-01 22:28N 47°38' W 122°23'0 0.0
2015-Mar-01 21:33N 47°38' W 122°23'0 0.0
2015-Mar-01 20:58N 47°38' W 122°23'0 0.0
2015-Mar-01 20:33N 47°38' W 122°23'0 0.0
2015-Mar-01 20:13N 47°38' W 122°23'0 0.0
2015-Mar-01 19:34N 47°38' W 122°23'0 0.0
2015-Mar-01 18:33N 47°38' W 122°23'0 0.0
2015-Mar-01 18:12N 47°38' W 122°23'0 0.0
2015-Mar-01 17:33N 47°38' W 122°23'0 0.0
2015-Mar-01 17:12N 47°38' W 122°23'0 0.0
2015-Mar-01 16:33N 47°38' W 122°23'0 0.0
2015-Mar-01 15:56N 47°38' W 122°23'0 0.0
2015-Mar-01 15:31N 47°38' W 122°23'0 0.0
2015-Mar-01 14:33N 47°38' W 122°23'0 0.0
2015-Mar-01 13:40N 47°38' W 122°23'0 0.1
2015-Mar-01 13:33N 47°38' W 122°23'0 0.0
2015-Mar-01 12:35N 47°38' W 122°23'0 0.0
2015-Mar-01 12:33N 47°38' W 122°23'0 0.0
2015-Mar-01 12:20N 47°38' W 122°23'0 0.0
2015-Mar-01 11:33N 47°38' W 122°23'0 0.0
2015-Mar-01 10:55N 47°38' W 122°23'0 0.0
2015-Mar-01 10:33N 47°38' W 122°23'0 0.1
2015-Mar-01 10:29N 47°38' W 122°23'0 0.0
2015-Mar-01 09:33N 47°38' W 122°23'0 0.0
2015-Mar-01 08:26N 47°38' W 122°23'0 0.0
2015-Mar-01 07:26N 47°38' W 122°23'0 0.0
2015-Mar-01 06:33N 47°38' W 122°23'0 0.0
2015-Mar-01 05:33N 47°38' W 122°23'0 0.0
2015-Mar-01 05:33N 47°38' W 122°23'0 0.0
2015-Mar-01 04:33N 47°38' W 122°23'0 0.0
2015-Mar-01 04:27N 47°38' W 122°23'0 0.0
2015-Mar-01 03:32N 47°38' W 122°23'0 0.0
2015-Mar-01 03:32N 47°38' W 122°23'0 0.0
2015-Mar-01 02:32N 47°38' W 122°23'0 0.0
2015-Mar-01 02:12N 47°38' W 122°23'0 0.0
2015-Mar-01 01:34N 47°38' W 122°23'0 0.0
2015-Mar-01 01:32N 47°38' W 122°23'0 0.0
2015-Mar-01 00:34N 47°38' W 122°23'0 0.0
2015-Mar-01 00:32N 47°38' W 122°23'0 0.0
2015-Feb-28 23:33N 47°38' W 122°23'0 0.0
2015-Feb-28 23:32N 47°38' W 122°23'0 0.0
2015-Feb-28 22:33N 47°38' W 122°23'0 0.0
2015-Feb-28 21:52N 47°38' W 122°23'1 2.5
2015-Feb-28 21:33N 47°38' W 122°24'0 8.3
2015-Feb-28 21:31N 47°38' W 122°24'8 8.3
2015-Feb-28 20:33N 47°46' W 122°25'0 8.5
2015-Feb-28 20:31N 47°46' W 122°25'9 9.4
2015-Feb-28 19:34N 47°55' W 122°21'9 8.7
2015-Feb-28 18:33N 48°03' W 122°24'9 9.1
2015-Feb-28 17:33N 48°10' W 122°32'9 8.7
2015-Feb-28 16:32N 48°19' W 122°30'4 0.7
2015-Feb-28 11:05N 48°22' W 122°34'5 8.5
2015-Feb-28 10:31N 48°18' W 122°30'8 7.3
2015-Feb-28 09:24N 48°10' W 122°32'6 7.4
2015-Feb-28 08:32N 48°05' W 122°27'7 7.2
2015-Feb-28 07:33N 47°60' W 122°20'7 6.9
2015-Feb-28 06:34N 47°53' W 122°22'3 7.3
2015-Feb-28 06:08N 47°50' W 122°24'4 7.1
2015-Feb-28 05:33N 47°46' W 122°25'4 7.6
2015-Feb-28 05:03N 47°42' W 122°26'4 7.3
2015-Feb-28 04:33N 47°39' W 122°27'2 7.5
2015-Feb-28 04:18N 47°37' W 122°27'5 7.3
2015-Feb-28 03:33N 47°31' W 122°29'1 8.1
2015-Feb-28 03:27N 47°31' W 122°29'8 8.6
2015-Feb-28 02:28N 47°23' W 122°32'10 8.9
2015-Feb-28 01:19N 47°13' W 122°36'15 1.1
2015-Feb-27 11:18N 47°04' W 122°55'0 0.0
2015-Feb-27 10:18N 47°04' W 122°55'0 0.0
2015-Feb-27 09:31N 47°04' W 122°55'8 1.2
2015-Feb-27 03:15N 47°11' W 122°50'6 7.4
2015-Feb-27 02:24N 47°11' W 122°40'6 7.6
2015-Feb-27 01:33N 47°16' W 122°34'6 6.0
2015-Feb-27 00:33N 47°22' W 122°32'7 7.4
2015-Feb-26 23:33N 47°29' W 122°30'3 7.5
2015-Feb-26 23:09N 47°32' W 122°29'5 7.8
2015-Feb-26 22:33N 47°36' W 122°26'1 8.0
2015-Feb-26 22:23N 47°37' W 122°25'1 1.6
2015-Feb-26 21:33N 47°38' W 122°23'0 0.0
2015-Feb-26 20:59N 47°38' W 122°23'0 0.0
2015-Feb-26 20:32N 47°38' W 122°23'0 0.0
2015-Feb-26 20:24N 47°38' W 122°23'3 3.8
2015-Feb-26 19:34N 47°40' W 122°27'1 8.1
2015-Feb-26 19:29N 47°41' W 122°26'8 8.3
2015-Feb-26 18:34N 47°48' W 122°24'1 7.9
2015-Feb-26 18:29N 47°49' W 122°24'8 8.7
2015-Feb-26 17:33N 47°56' W 122°21'1 8.7
2015-Feb-26 17:29N 47°57' W 122°20'7 7.9
2015-Feb-26 16:33N 48°04' W 122°25'9 8.1
2015-Feb-26 15:25N 48°11' W 122°33'7 8.1
2015-Feb-26 14:34N 48°18' W 122°30'7 2.0
2015-Feb-26 11:04N 48°24' W 122°35'4 8.1
2015-Feb-26 10:33N 48°20' W 122°32'11 7.3
2015-Feb-26 09:03N 48°09' W 122°32'4 7.7
2015-Feb-26 08:30N 48°06' W 122°28'7 7.9
2015-Feb-26 07:33N 48°00' W 122°21'7 7.5
2015-Feb-26 06:34N 47°53' W 122°22'8 7.9
2015-Feb-26 05:34N 47°45' W 122°26'0 8.2
2015-Feb-26 05:33N 47°45' W 122°26'8 7.8
2015-Feb-26 04:33N 47°38' W 122°27'0 5.4
2015-Feb-26 04:33N 47°38' W 122°27'8 7.5
2015-Feb-26 03:33N 47°30' W 122°29'8 8.1
2015-Feb-26 02:34N 47°22' W 122°32'7 7.3
2015-Feb-26 01:33N 47°15' W 122°34'8 7.6
2015-Feb-26 00:32N 47°11' W 122°43'8 7.7
2015-Feb-25 23:33N 47°09' W 122°54'5 0.4
2015-Feb-25 10:30N 47°04' W 122°55'7 6.5
2015-Feb-25 09:21N 47°11' W 122°50'7 6.9
2015-Feb-25 08:20N 47°11' W 122°40'6 7.2
2015-Feb-25 07:33N 47°15' W 122°34'7 7.4
2015-Feb-25 06:33N 47°23' W 122°32'8 8.1
2015-Feb-25 05:33N 47°31' W 122°29'8 8.5
2015-Feb-25 04:36N 47°39' W 122°28'0 8.9
2015-Feb-25 04:33N 47°39' W 122°28'4 8.7
2015-Feb-25 04:06N 47°43' W 122°27'4 8.3
2015-Feb-25 03:34N 47°47' W 122°25'2 8.6
2015-Feb-25 03:17N 47°49' W 122°24'6 8.6
2015-Feb-25 02:34N 47°55' W 122°21'8 7.8
2015-Feb-25 01:33N 48°03' W 122°24'9 8.3
2015-Feb-25 00:26N 48°10' W 122°32'8 8.4
2015-Feb-24 23:31N 48°18' W 122°30'7 0.9
2015-Feb-24 15:16N 48°25' W 122°34'5 6.7
2015-Feb-24 14:32N 48°20' W 122°32'9 7.4
2015-Feb-24 13:17N 48°11' W 122°33'6 7.5
2015-Feb-24 12:29N 48°06' W 122°28'7 7.7
2015-Feb-24 11:33N 48°00' W 122°21'7 7.1
2015-Feb-24 10:33N 47°53' W 122°22'5 7.0
2015-Feb-24 09:54N 47°49' W 122°25'3 7.9
2015-Feb-24 09:33N 47°46' W 122°25'1 8.4
2015-Feb-24 09:29N 47°46' W 122°26'7 8.0
2015-Feb-24 08:34N 47°38' W 122°27'4 7.7
2015-Feb-24 08:04N 47°35' W 122°28'4 8.3
2015-Feb-24 07:33N 47°30' W 122°29'010.8
2015-Feb-24 07:33N 47°30' W 122°29'9 8.6
2015-Feb-24 06:29N 47°21' W 122°32'8 8.2
2015-Feb-24 05:32N 47°14' W 122°35'9 7.9
2015-Feb-24 04:26N 47°10' W 122°46'6 5.8
2015-Feb-24 03:19N 47°07' W 122°55'3 1.1
2015-Feb-24 00:33N 47°04' W 122°55'0 0.0
2015-Feb-23 23:33N 47°04' W 122°55'0 0.1
2015-Feb-23 22:13N 47°04' W 122°55'0 0.0
2015-Feb-23 10:21N 47°04' W 122°55'  

Dump ship's entire track history